Latest Coastal Weather Observations for Coffs Harbour

IDN60701

Issued at 6:15 am EDT Saturday 22 November 2014 (issued every 10 minutes, with the page automatically refreshed every 10 minutes)

About coastal observations | Map of coastal stations | Coastal observations for NSW | Marine services | Other Formats
Station Details ID: 059040 Name: COFFS HARBOUR MO Lat: -30.31 Lon: 153.12 Height: 5.0 m
Data from the previous 72 hours. | See also: Recent months at Coffs Harbour
Date/Time
EDT
Temp

°C
Wind Pressure Rain
since 9am
mm
Weather Cloud Vis
km
Sea
Height
m
Swell
Dir
 
Speed
knots
Gust
knots
hPa Trend Height
m
Period
s
Dir
22/06:00am 21.5 SW 6 8 1012.1 - 6.8 - Cloudy 4 - - - -
22/05:30am 21.2 S 3 5 1011.4 - 6.8 - Cloudy 3 - - - -
22/05:01am 20.9 CALM 0 0 1010.9 - 6.8 - Partly cloudy 3 - - - -
22/05:00am 20.9 CALM 0 2 1010.9 - 6.8 - Partly cloudy 3 - - - -
22/04:34am 21.3 E 1 4 1010.2 - 6.8 - Partly cloudy 3 - - - -
22/04:30am 21.2 CALM 0 4 1010.2 - 6.8 - Partly cloudy 3 - - - -
22/04:06am 21.7 E 4 6 1009.8 - 6.8 - Partly cloudy 4 - - - -
22/04:00am 21.1 SSE 5 6 1009.9 - 6.8 - Partly cloudy 4 - - - -
22/03:30am 21.4 W 2 5 1009.1 - 6.8 - - 5 - - - -
22/03:00am 21.8 SSW 4 6 1009.2 - 6.8 - - 5 - - - -
22/02:30am 22.1 W 4 8 1008.8 - 6.8 - - 6 - - - -
22/02:00am 22.3 NE 11 16 1008.8 - 6.8 - Partly cloudy 6 - - - -
22/01:30am 22.2 NE 14 17 1008.8 - 6.8 - - 5 - - - -
22/01:00am 22.4 NNE 12 15 1008.5 - 6.8 - - 6 - - - -
22/12:30am 22.2 NNE 9 13 1008.9 - 6.8 - - 5 - - - -
22/12:00am 22.0 NNE 11 15 1009.4 - 6.8 - - 5 - - - -
 
Date/Time
EDT
Temp

°C
Wind Pressure Rain
since 9am
mm
Weather Cloud Vis
km
Sea
Height
m
Swell
Dir
 
Speed
knots
Gust
knots
hPa Trend Height
m
Period
s
Dir
21/11:30pm 21.9 NE 15 19 1009.5 - 6.8 - - 5 - - - -
21/11:00pm 22.0 NNE 12 15 1009.3 - 6.8 - - 5 - - - -
21/10:30pm 22.0 NNE 13 16 1009.2 - 6.8 - - 5 - - - -
21/10:00pm 22.2 NNE 13 16 1009.3 - 6.8 - - 6 - - - -
21/09:30pm 22.5 NNE 14 17 1009.3 - 6.8 - Partly cloudy 6 - - - -
21/09:00pm 22.5 NNE 13 17 1009.3 - 6.8 - Mostly clear 6 - - - -
21/08:30pm 22.9 NE 14 18 1009.4 - 6.4 - Partly cloudy 6 - - - -
21/08:22pm 22.9 NE 14 18 1009.2 - 6.4 - Partly cloudy 6 - - - -
21/08:00pm 23.0 NNE 14 18 1008.5 - 6.4 - - 7 - - - -
21/07:30pm 22.7 NNE 18 24 1008.4 - 6.4 - - 7 - - - -
21/07:00pm 22.9 NNE 17 22 1008.3 - 6.4 - - 7 - - - -
21/06:30pm 23.3 NE 16 22 1008.3 - 6.4 - Partly cloudy 8 - - - -
21/06:06pm 23.2 NE 21 31 1007.7 - 6.4 - - 9 - - - -
21/06:00pm 23.2 NE 23 31 1007.6 - 6.4 - - 9 - - - -
21/05:32pm 23.6 NE 22 32 1007.5 - 6.4 - - 8 - - - -
21/05:30pm 23.4 NE 23 29 1007.5 - 6.4 - - 8 - - - -
21/05:07pm 23.0 NE 25 35 1007.1 - 6.4 - Partly cloudy 8 - - - -
21/05:00pm 23.1 NNE 28 35 1007.0 - 6.4 - Partly cloudy 8 - - - -
21/04:56pm 23.3 NNE 27 32 1006.7 - 6.4 - Partly cloudy 3 - - - -
21/04:41pm 23.8 NNE 16 22 1007.7 - 0.8 - Partly cloudy 1 - - - -
21/04:30pm 24.5 NNE 18 28 1006.8 - 0.0 - Partly cloudy 9 - - - -
21/04:15pm 24.8 NE 24 34 1006.9 - 0.0 - Partly cloudy 9 - - - -
21/04:00pm 25.2 NE 25 33 1006.7 - 0.0 - - 10 - - - -
21/03:47pm 25.0 NNE 24 34 1006.8 - 0.0 - - 10 - - - -
21/03:30pm 26.2 NNE 26 33 1006.7 - 0.0 - - 10 - - - -
21/03:17pm 25.6 NE 22 32 1006.9 - 0.0 - - 10 - - - -
21/03:00pm 26.5 NE 21 28 1006.9 F 0.0 Fine Mostly cloudy 15 - - - -
21/02:30pm 29.0 NNE 22 29 1006.9 - 0.0 - - 10 - - - -
21/02:00pm 28.3 NE 25 32 1007.5 - 0.0 - - 10 - - - -
21/01:30pm 27.1 NE 25 32 1008.1 - 0.0 - - 10 - - - -
21/01:00pm 27.2 NE 24 32 1008.6 - 0.0 - - 10 - - - -
21/12:30pm 27.6 NE 22 29 1009.3 - 0.0 - - 10 - - - -
21/12:00pm 27.5 NE 20 26 1009.9 - 0.0 - - 10 - - - -
21/11:30am 25.9 NE 19 25 1010.4 - 0.0 - - 10 - - - -
21/11:00am 27.5 NNE 18 21 1010.7 - 0.0 - - 10 - - - -
21/10:30am 27.0 NNE 15 18 1011.2 - 0.0 - - 10 - - - -
21/10:00am 29.4 N 13 16 1011.5 - 0.0 - - 10 - - - -
21/09:30am 28.3 NNE 13 19 1011.7 - 0.0 - - 10 - - - -
21/09:00am 26.8 NNE 14 18 1011.7 F 0.0 Haze Partly cloudy 20 - - - -
21/08:30am 26.9 NNE 15 19 1012.0 - 0.0 - - 10 - - - -
21/08:00am 26.1 N 14 17 1012.0 - 0.0 - - 10 - - - -
21/07:30am 25.3 N 16 21 1011.8 - 0.0 - - 10 - - - -
21/07:00am 24.1 N 10 12 1011.8 - 0.0 - - 10 - - - -
21/06:30am 23.1 N 19 22 1011.1 - 0.0 - - 10 - - - -
21/06:00am 23.4 N 12 14 1011.5 - 0.0 - - 10 - - - -
21/05:30am 23.1 N 15 20 1011.2 - 0.0 - - 10 - - - -
21/05:00am 23.1 N 16 19 1010.8 - 0.0 - - 10 - - - -
21/04:30am 23.5 N 15 21 1010.7 - 0.0 - - 10 - - - -
21/04:00am 23.5 N 14 17 1010.9 - 0.0 - - 10 - - - -
21/03:30am 23.4 N 17 21 1011.0 - 0.0 - - 10 - - - -
21/03:00am 23.2 N 15 18 1011.2 - 0.0 - - 10 - - - -
21/02:30am 23.1 N 16 20 1011.2 - 0.0 - - 10 - - - -
21/02:00am 23.2 NNE 16 21 1011.6 - 0.0 - - 10 - - - -
21/01:30am 23.6 N 15 19 1012.2 - 0.0 - - 10 - - - -
21/01:00am 23.5 N 15 20 1012.3 - 0.0 - - 10 - - - -
21/12:30am 23.5 N 14 18 1012.7 - 0.0 - - 10 - - - -
21/12:00am 23.4 NNE 13 17 1013.2 - 0.0 - - 10 - - - -
 
Date/Time
EDT
Temp

°C
Wind Pressure Rain
since 9am
mm
Weather Cloud Vis
km
Sea
Height
m
Swell
Dir
 
Speed
knots
Gust
knots
hPa Trend Height
m
Period
s
Dir
20/11:30pm 23.1 NNE 13 17 1013.3 - 0.0 - - 10 - - - -
20/11:00pm 23.2 NNE 11 14 1013.5 - 0.0 - - 10 - - - -
20/10:30pm 23.2 N 12 15 1013.5 - 0.0 - - 10 - - - -
20/10:00pm 23.5 NNE 13 16 1013.2 - 0.0 - - 10 - - - -
20/09:30pm 23.7 N 13 17 1013.0 - 0.0 - - 10 - - - -
20/09:00pm 23.6 NNE 13 16 1012.7 - 0.0 - - 10 - - - -
20/08:30pm 23.6 NNE 14 17 1012.3 - 0.0 - - 10 - - - -
20/08:00pm 23.8 NNE 15 19 1011.9 - 0.0 - - 10 - - - -
20/07:30pm 23.8 NNE 17 22 1011.6 - 0.0 - Partly cloudy 10 - - - -
20/07:00pm 24.2 NNE 17 22 1011.5 - 0.0 - - 10 - - - -
20/06:30pm 24.6 NNE 18 25 1011.2 - 0.0 - - 10 - - - -
20/06:00pm 25.0 NNE 20 27 1011.2 - 0.0 - - 10 - - - -
20/05:30pm 25.1 NNE 21 29 1010.9 - 0.0 - - 10 - - - -
20/05:00pm 25.3 NNE 26 32 1011.1 - 0.0 - - 10 - - - -
20/04:30pm 25.4 NNE 25 31 1011.3 - 0.0 - - 10 - - - -
20/04:00pm 25.9 NNE 23 32 1011.5 - 0.0 - - 10 - - - -
20/03:30pm 25.9 NNE 24 31 1011.9 - 0.0 - - 10 - - - -
20/03:00pm 26.3 NNE 25 32 1012.3 F 0.0 - Partly cloudy 30 - - - -
20/02:30pm 26.3 NNE 23 33 1012.8 - 0.0 - - 10 - - - -
20/02:00pm 26.2 NNE 25 32 1013.4 - 0.0 - - 10 - - - -
20/01:30pm 26.2 NNE 25 32 1013.9 - 0.0 - - 10 - - - -
20/01:00pm 26.6 NNE 25 32 1014.4 - 0.0 - - 10 - - - -
20/12:30pm 26.2 NNE 24 33 1014.8 - 0.0 - - 10 - - - -
20/12:27pm 26.2 NNE 23 33 1014.9 - 0.0 - - 10 - - - -
20/12:00pm 26.0 NNE 22 29 1015.3 - 0.0 - - 10 - - - -
20/11:30am 26.1 NNE 21 26 1015.7 - 0.0 - - 10 - - - -
20/11:00am 26.1 NNE 18 25 1016.0 - 0.0 - - 10 - - - -
20/10:30am 25.7 NE 16 19 1016.3 - 0.0 - - 10 - - - -
20/10:00am 25.2 NE 14 18 1016.5 - 0.0 - - 10 - - - -
20/09:30am 25.4 NE 11 15 1016.8 - 0.0 - - 10 - - - -
20/09:00am 25.7 N 10 14 1017.1 F 7.0 - Clear 30 - - - -
20/08:30am 25.0 NNE 10 13 1017.1 - 7.0 - - 10 - - - -
20/08:00am 24.5 NNW 3 5 1017.0 - 7.0 - - 10 - - - -
20/07:30am 23.4 N 5 7 1016.9 - 7.0 - - 10 - - - -
20/07:00am 21.4 NNW 5 6 1016.8 - 7.0 - - 10 - - - -
20/06:30am 20.2 N 3 4 1016.8 - 7.0 - Partly cloudy 10 - - - -
20/06:00am 19.6 NW 4 5 1016.9 - 7.0 - Mostly cloudy 10 - - - -
20/05:59am 19.6 NW 4 5 1016.8 - 7.0 - Partly cloudy 10 - - - -
20/05:45am 19.4 NNW 5 6 1016.5 - 7.0 - Partly cloudy 6 - - - -
20/05:30am 19.6 NNW 1 4 1016.4 - 7.0 - Partly cloudy 9 - - - -
20/05:28am 19.6 CALM 0 4 1016.4 - 7.0 - Partly cloudy 9 - - - -
20/05:01am 19.2 CALM 0 0 1016.1 - 7.0 - - 6 - - - -
20/05:00am 19.2 CALM 0 0 1016.1 - 7.0 - - 7 - - - -
20/04:30am 19.5 NNE 4 4 1016.2 - 7.0 - Partly cloudy 10 - - - -
20/04:00am 19.6 NNW 4 5 1016.1 - 7.0 - - 10 - - - -
20/03:30am 20.5 NNW 6 9 1016.3 - 7.0 - Partly cloudy 10 - - - -
20/03:00am 20.4 N 9 14 1016.7 - 7.0 - Cloudy 10 - - - -
20/02:30am 20.1 N 7 9 1016.5 - 7.0 - Cloudy 10 - - - -
20/02:05am 20.1 N 9 12 1017.0 - 7.0 - Partly cloudy 10 - - - -
20/02:03am 20.3 N 9 12 1017.1 - 7.0 - Partly cloudy 10 - - - -
20/02:00am 20.2 NNE 10 14 1017.2 - 7.0 - Partly cloudy 10 - - - -
20/01:44am 20.8 NNE 12 17 1017.3 - 7.0 - Partly cloudy 5 - - - -
20/01:41am 20.9 NNE 10 17 1017.3 - 6.8 - Partly cloudy 10 - - - -
20/01:34am 21.1 N 9 14 1017.3 - 6.8 - Partly cloudy 10 - - - -
20/01:30am 21.1 N 8 14 1017.2 - 6.8 - Partly cloudy 5 - - - -
20/01:24am 21.1 N 5 8 1017.3 - 6.6 - Partly cloudy 2 - - - -
20/01:13am 21.1 N 3 4 1017.3 - 4.8 - Partly cloudy 3 - - - -
20/01:00am 21.2 NNE 11 15 1017.5 - 3.8 - Partly cloudy 3 - - - -
20/12:54am 21.4 NNE 12 15 1017.6 - 3.4 - Partly cloudy 3 - - - -
20/12:35am 22.1 ENE 4 5 1017.4 - 0.6 - Partly cloudy 3 - - - -
20/12:30am 22.2 ENE 4 5 1017.5 - 0.4 - Partly cloudy 3 - - - -
20/12:23am 22.2 ENE 4 5 1017.5 - 0.0 - Partly cloudy 6 - - - -
20/12:19am 22.2 ENE 4 5 1017.5 - 0.0 - Partly cloudy 10 - - - -
20/12:00am 22.3 NE 5 7 1018.0 - 0.0 - Cloudy 10 - - - -
 
Date/Time
EDT
Temp

°C
Wind Pressure Rain
since 9am
mm
Weather Cloud Vis
km
Sea
Height
m
Swell
Dir
 
Speed
knots
Gust
knots
hPa Trend Height
m
Period
s
Dir
19/11:42pm 22.7 NNE 8 13 1018.0 - 0.0 - Partly cloudy 10 - - - -
19/11:30pm 22.7 NNE 4 6 1018.2 - 0.0 - Partly cloudy 10 - - - -
19/11:00pm 22.7 NNE 6 8 1018.2 - 0.0 - Partly cloudy 10 - - - -
19/10:30pm 22.9 NE 6 9 1018.4 - 0.0 - Partly cloudy 10 - - - -
19/10:00pm 22.8 NE 7 9 1018.3 - 0.0 - Partly cloudy 10 - - - -
19/09:30pm 22.9 NE 5 5 1018.3 - 0.0 - Partly cloudy 10 - - - -
19/09:00pm 22.8 NE 5 7 1018.5 - 0.0 - Cloudy 10 - - - -
19/08:30pm 22.4 NE 7 9 1018.2 - 0.0 - Partly cloudy 10 - - - -
19/08:00pm 22.6 NE 7 8 1017.8 - 0.0 - Partly cloudy 10 - - - -
19/07:30pm 22.9 NE 6 9 1017.7 - 0.0 - Partly cloudy 10 - - - -
19/07:00pm 23.2 ENE 7 9 1017.4 - 0.0 - Partly cloudy 10 - - - -
19/06:30pm 23.4 ENE 8 10 1017.3 - 0.0 - Partly cloudy 10 - - - -
19/06:00pm 23.8 E 8 10 1017.1 - 0.0 - Mostly clear 10 - - - -
19/05:30pm 23.9 SSE 7 8 1017.0 - 0.0 - Partly cloudy 10 - - - -
19/05:00pm 24.0 S 7 9 1017.0 - 0.0 - - 10 - - - -
19/04:30pm 23.5 S 8 10 1017.0 - 0.0 - - 10 - - - -
19/04:00pm 23.8 S 9 12 1017.4 - 0.0 - - 10 - - - -
19/03:30pm 24.0 S 10 13 1017.9 - 0.0 - Partly cloudy 10 - - - -
19/03:00pm 24.1 S 13 16 1018.7 R 0.0 - Partly cloudy 20 - - - -
19/02:30pm 24.0 S 13 16 1019.1 - 0.0 - Partly cloudy 10 - - - -
19/02:00pm 24.9 S 14 17 1019.4 - 0.0 - - 10 - - - -
19/01:30pm 25.0 S 13 16 1019.8 - 0.0 - Partly cloudy 10 - - - -
19/01:25pm 24.6 S 12 15 1019.8 - 0.0 - Partly cloudy 10 - - - -
19/01:00pm 23.8 S 10 13 1020.0 - 0.0 - Partly cloudy 10 - - - -
19/12:30pm 22.0 SSW 10 14 1020.4 - 0.0 - Cloudy 10 - - - -
19/12:15pm 21.8 SSW 11 14 1020.5 - 0.0 - Partly cloudy 10 - - - -
19/12:00pm 21.9 SSW 11 15 1020.8 - 0.0 - Cloudy 10 - - - -
19/11:56am 21.9 SSW 11 14 1020.8 - 0.0 - Partly cloudy 10 - - - -
19/11:30am 21.1 S 10 14 1020.9 - 0.0 - Partly cloudy 10 - - - -
19/11:09am 21.4 SSW 12 15 1020.8 - 0.0 - Cloudy 10 - - - -
19/11:00am 21.5 SSW 11 16 1020.9 - 0.0 - Partly cloudy 10 - - - -
19/10:30am 22.1 SSW 14 19 1020.9 - 0.0 - Partly cloudy 10 - - - -
19/10:00am 22.0 SSW 15 18 1020.9 - 0.0 - Partly cloudy 10 - - - -
19/09:30am 22.3 S 16 19 1020.8 - 0.0 - Partly cloudy 10 - - - -
19/09:19am 22.9 S 16 20 1020.7 - 0.0 - Partly cloudy 10 - - - -
19/09:00am 21.3 S 15 - 1020.8 R 0.0 - Mostly cloudy 15 - - - -
19/08:57am 21.4 S 15 20 1020.6 - 0.0 - Partly cloudy 10 - - - -
19/08:40am 21.8 S 16 20 1020.3 - 0.0 - Partly cloudy 10 - - - -
19/08:30am 22.3 S 14 18 1020.1 - 0.0 - Partly cloudy 10 - - - -
19/08:00am 23.9 S 6 7 1019.7 - 0.0 - - 10 - - - -
19/07:40am 23.8 SE 6 7 1019.3 - 0.0 - Partly cloudy 10 - - - -
19/07:30am 23.3 S 5 6 1019.2 - 0.0 - Partly cloudy 8 - - - -
19/07:24am 23.0 S 4 6 1019.2 - 0.0 - Partly cloudy 10 - - - -
19/07:16am 22.4 SSW 4 5 1019.1 - 0.0 - Partly cloudy 10 - - - -
19/07:06am 22.1 SSW 5 5 1018.9 - 0.0 - Partly cloudy 10 - - - -
19/07:00am 21.9 SSW 4 5 1018.9 - 0.0 - Partly cloudy 10 - - - -
19/06:50am 21.7 W 1 4 1018.8 - 0.0 - Partly cloudy 10 - - - -
19/06:30am 21.2 CALM 0 1 1018.5 - 0.0 - Partly cloudy 10 - - - -

Other Formats:

Comma delimited format used in spreadsheet applications
http://www.bom.gov.au/fwo/IDN60701/IDN60701.94791.axf

JavaScript Object Notation format (JSON) in row-major order
http://www.bom.gov.au/fwo/IDN60701/IDN60701.94791.json